createdAt,value
2018-03-27T00:00:59.259Z,1009.67
2018-03-27T00:01:59.256Z,1009.73
2018-03-27T00:02:59.246Z,1009.74
2018-03-27T00:03:59.237Z,1009.75
2018-03-27T00:04:59.234Z,1009.76
2018-03-27T00:05:59.224Z,1009.75
2018-03-27T00:06:59.246Z,1009.71
2018-03-27T00:07:59.211Z,1009.72
2018-03-27T00:08:59.205Z,1009.67
2018-03-27T00:09:59.199Z,1009.70
2018-03-27T00:10:59.190Z,1009.71
2018-03-27T00:11:59.183Z,1009.68
2018-03-27T00:12:59.178Z,1009.66
2018-03-27T00:13:59.168Z,1009.62
2018-03-27T00:14:59.162Z,1009.68
2018-03-27T00:15:59.154Z,1009.60
2018-03-27T00:16:59.148Z,1009.60
2018-03-27T00:17:59.139Z,1009.65
2018-03-27T00:18:59.134Z,1009.62
2018-03-27T00:19:59.127Z,1009.65
2018-03-27T00:20:59.119Z,1009.64
2018-03-27T00:21:59.111Z,1009.65
2018-03-27T00:22:59.105Z,1009.63
2018-03-27T00:23:59.098Z,1009.62
2018-03-27T00:24:59.099Z,1009.61
2018-03-27T00:25:59.084Z,1009.56
2018-03-27T00:26:59.078Z,1009.61
2018-03-27T00:27:59.070Z,1009.60
2018-03-27T00:28:59.064Z,1009.66
2018-03-27T00:29:59.056Z,1009.64
2018-03-27T00:30:59.051Z,1009.64
2018-03-27T00:31:59.046Z,1009.66
2018-03-27T00:32:59.042Z,1009.60
2018-03-27T00:33:59.027Z,1009.59
2018-03-27T00:34:59.022Z,1009.59
2018-03-27T00:35:59.015Z,1009.54
2018-03-27T00:36:59.008Z,1009.54
2018-03-27T00:37:59.002Z,1009.52
2018-03-27T00:38:58.999Z,1009.48
2018-03-27T00:39:58.987Z,1009.50
2018-03-27T00:40:58.980Z,1009.52
2018-03-27T00:41:58.974Z,1009.49
2018-03-27T00:42:59.218Z,1009.55
2018-03-27T00:43:58.959Z,1009.52
2018-03-27T00:44:58.968Z,1009.51
2018-03-27T00:45:58.944Z,1009.52
2018-03-27T00:46:58.937Z,1009.53
2018-03-27T00:47:58.931Z,1009.56
2018-03-27T00:48:58.924Z,1009.60
2018-03-27T00:49:58.917Z,1009.59
2018-03-27T00:50:58.910Z,1009.61
2018-03-27T00:51:58.904Z,1009.58
2018-03-27T00:52:58.902Z,1009.56
2018-03-27T00:53:58.889Z,1009.56
2018-03-27T00:54:59.132Z,1009.61
2018-03-27T00:55:58.876Z,1009.56
2018-03-27T00:56:58.869Z,1009.52
2018-03-27T00:57:58.861Z,1009.53
2018-03-27T00:58:58.858Z,1009.54
2018-03-27T00:59:58.848Z,1009.57
2018-03-27T01:00:59.093Z,1009.56
2018-03-27T01:01:58.834Z,1009.58
2018-03-27T01:02:58.828Z,1009.52
2018-03-27T01:03:58.825Z,1009.57
2018-03-27T01:04:58.815Z,1009.56
2018-03-27T01:05:58.807Z,1009.58
2018-03-27T01:06:59.205Z,1009.56
2018-03-27T01:07:58.794Z,1009.52
2018-03-27T01:08:58.787Z,1009.55
2018-03-27T01:09:58.780Z,1009.53
2018-03-27T01:10:58.780Z,1009.54
2018-03-27T01:11:58.766Z,1009.50
2018-03-27T01:12:59.060Z,1009.49
2018-03-27T01:13:58.753Z,1009.45
2018-03-27T01:14:58.746Z,1009.52
2018-03-27T01:15:58.739Z,1009.54
2018-03-27T01:16:58.732Z,1009.52
2018-03-27T01:17:58.724Z,1009.54
2018-03-27T01:18:58.968Z,1009.49
2018-03-27T01:19:58.711Z,1009.52
2018-03-27T01:20:58.704Z,1009.51
2018-03-27T01:21:58.695Z,1009.46
2018-03-27T01:22:58.689Z,1009.45
2018-03-27T01:23:58.682Z,1009.45
2018-03-27T01:24:59.024Z,1009.40
2018-03-27T01:25:58.667Z,1009.37
2018-03-27T01:26:58.660Z,1009.32
2018-03-27T01:27:58.653Z,1009.31
2018-03-27T01:28:58.645Z,1009.32
2018-03-27T01:29:58.643Z,1009.30
2018-03-27T01:30:58.880Z,1009.27
2018-03-27T01:31:58.623Z,1009.28
2018-03-27T01:32:58.621Z,1009.26
2018-03-27T01:33:58.607Z,1009.24
2018-03-27T01:34:58.600Z,1009.25
2018-03-27T01:35:58.593Z,1009.23
2018-03-27T01:36:58.888Z,1009.21
2018-03-27T01:37:58.581Z,1009.22
2018-03-27T01:38:58.571Z,1009.20
2018-03-27T01:39:58.563Z,1009.20
2018-03-27T01:40:58.557Z,1009.19
2018-03-27T01:41:58.562Z,1009.17
2018-03-27T01:42:58.841Z,1009.16
2018-03-27T01:43:58.532Z,1009.16
2018-03-27T01:44:58.526Z,1009.18
2018-03-27T01:45:58.521Z,1009.17
2018-03-27T01:46:58.511Z,1009.14
2018-03-27T01:47:58.507Z,1009.13
2018-03-27T01:48:58.746Z,1009.12
2018-03-27T01:49:58.504Z,1009.09
2018-03-27T01:50:58.480Z,1009.10
2018-03-27T01:51:58.472Z,1009.12
2018-03-27T01:52:58.465Z,1009.06
2018-03-27T01:53:58.457Z,1009.04
2018-03-27T01:54:58.700Z,1009.03
2018-03-27T01:55:58.442Z,1009.02
2018-03-27T01:56:58.435Z,1008.98
2018-03-27T01:57:58.427Z,1009.03
2018-03-27T01:58:58.421Z,1009.05
2018-03-27T01:59:58.413Z,1009.02
2018-03-27T02:00:58.656Z,1009.04
2018-03-27T02:01:58.398Z,1009.01
2018-03-27T02:02:58.391Z,1009.03
2018-03-27T02:03:58.383Z,1009.01
2018-03-27T02:04:58.376Z,1009.01
2018-03-27T02:05:58.367Z,1008.96
2018-03-27T02:06:58.614Z,1008.98
2018-03-27T02:07:58.353Z,1008.97
2018-03-27T02:08:58.347Z,1008.98
2018-03-27T02:09:58.341Z,1008.94
2018-03-27T02:10:58.333Z,1008.92
2018-03-27T02:11:58.323Z,1008.96
2018-03-27T02:12:58.568Z,1008.97
2018-03-27T02:13:58.307Z,1008.93
2018-03-27T02:14:58.299Z,1008.95
2018-03-27T02:15:58.299Z,1008.94
2018-03-27T02:16:58.288Z,1008.97
2018-03-27T02:17:58.283Z,1008.94
2018-03-27T02:18:58.538Z,1008.94
2018-03-27T02:19:58.263Z,1008.92
2018-03-27T02:20:58.257Z,1008.91
2018-03-27T02:21:58.249Z,1008.90
2018-03-27T02:22:58.242Z,1008.93
2018-03-27T02:23:58.235Z,1008.91
2018-03-27T02:24:58.541Z,1008.94
2018-03-27T02:25:58.220Z,1008.96
2018-03-27T02:26:58.211Z,1008.95
2018-03-27T02:27:58.205Z,1008.93
2018-03-27T02:28:58.197Z,1008.94
2018-03-27T02:29:58.191Z,1008.97
2018-03-27T02:30:58.484Z,1008.94
2018-03-27T02:31:58.176Z,1008.93
2018-03-27T02:32:58.168Z,1008.95
2018-03-27T02:33:58.160Z,1008.94
2018-03-27T02:34:58.153Z,1008.94
2018-03-27T02:35:58.187Z,1008.93
2018-03-27T02:36:58.489Z,1008.94
2018-03-27T02:37:58.131Z,1008.93
2018-03-27T02:38:58.124Z,1008.90
2018-03-27T02:39:58.123Z,1008.88
2018-03-27T02:40:58.112Z,1008.88
2018-03-27T02:41:58.102Z,1008.85
2018-03-27T02:42:58.348Z,1008.87
2018-03-27T02:43:58.087Z,1008.84
2018-03-27T02:44:58.105Z,1008.83
2018-03-27T02:45:58.072Z,1008.83
2018-03-27T02:46:58.068Z,1008.79
2018-03-27T02:47:58.058Z,1008.76
2018-03-27T02:48:58.301Z,1008.75
2018-03-27T02:49:58.042Z,1008.73
2018-03-27T02:50:58.036Z,1008.71
2018-03-27T02:51:58.030Z,1008.73
2018-03-27T02:52:58.022Z,1008.70
2018-03-27T02:53:58.014Z,1008.74
2018-03-27T02:54:58.312Z,1008.73
2018-03-27T02:55:58.001Z,1008.75
2018-03-27T02:56:57.993Z,1008.73
2018-03-27T02:57:57.993Z,1008.70
2018-03-27T02:58:57.981Z,1008.69
2018-03-27T02:59:57.973Z,1008.69
2018-03-27T03:00:58.215Z,1008.67
2018-03-27T03:01:57.961Z,1008.64
2018-03-27T03:02:57.951Z,1008.68
2018-03-27T03:03:57.950Z,1008.60
2018-03-27T03:04:57.935Z,1008.65
2018-03-27T03:05:57.930Z,1008.62
2018-03-27T03:06:58.173Z,1008.63
2018-03-27T03:07:57.916Z,1008.64
2018-03-27T03:08:57.909Z,1008.60
2018-03-27T03:09:57.902Z,1008.59
2018-03-27T03:10:57.932Z,1008.61
2018-03-27T03:11:57.900Z,1008.59
2018-03-27T03:12:58.229Z,1008.57
2018-03-27T03:13:57.872Z,1008.61
2018-03-27T03:14:57.867Z,1008.59
2018-03-27T03:15:57.857Z,1008.58
2018-03-27T03:16:57.852Z,1008.61
2018-03-27T03:17:57.848Z,1008.58
2018-03-27T03:18:58.090Z,1008.59
2018-03-27T03:19:57.832Z,1008.60
2018-03-27T03:20:57.823Z,1008.57
2018-03-27T03:21:57.815Z,1008.56
2018-03-27T03:22:57.808Z,1008.63
2018-03-27T03:23:57.802Z,1008.61
2018-03-27T03:24:58.046Z,1008.60
2018-03-27T03:25:57.802Z,1008.63
2018-03-27T03:26:57.786Z,1008.59
2018-03-27T03:27:57.773Z,1008.59
2018-03-27T03:28:57.767Z,1008.60
2018-03-27T03:29:57.760Z,1008.60
2018-03-27T03:30:58.102Z,1008.63
2018-03-27T03:31:57.750Z,1008.63
2018-03-27T03:32:57.738Z,1008.68
2018-03-27T03:33:57.733Z,1008.62
2018-03-27T03:34:57.724Z,1008.67
2018-03-27T03:35:57.720Z,1008.67
2018-03-27T03:36:58.011Z,1008.70
2018-03-27T03:37:57.703Z,1008.71
2018-03-27T03:38:57.696Z,1008.72
2018-03-27T03:39:57.690Z,1008.71
2018-03-27T03:40:57.686Z,1008.68
2018-03-27T03:41:57.686Z,1008.65
2018-03-27T03:42:57.917Z,1008.67
2018-03-27T03:43:57.661Z,1008.64
2018-03-27T03:44:57.685Z,1008.64
2018-03-27T03:45:57.646Z,1008.65
2018-03-27T03:46:57.638Z,1008.64
2018-03-27T03:47:57.633Z,1008.64
2018-03-27T03:48:58.076Z,1008.64
2018-03-27T03:49:57.633Z,1008.64
2018-03-27T03:50:57.611Z,1008.61
2018-03-27T03:51:57.604Z,1008.59
2018-03-27T03:52:57.598Z,1008.59
2018-03-27T03:53:57.589Z,1008.58
2018-03-27T03:54:57.884Z,1008.56
2018-03-27T03:55:57.574Z,1008.56
2018-03-27T03:56:57.569Z,1008.57
2018-03-27T03:57:57.561Z,1008.53
2018-03-27T03:58:57.559Z,1008.56
2018-03-27T03:59:57.547Z,1008.58
2018-03-27T04:00:57.790Z,1008.59
2018-03-27T04:01:57.532Z,1008.58
2018-03-27T04:02:57.531Z,1008.57
2018-03-27T04:03:57.524Z,1008.55
2018-03-27T04:04:57.509Z,1008.51
2018-03-27T04:05:57.506Z,1008.56
2018-03-27T04:06:57.807Z,1008.52
2018-03-27T04:07:57.488Z,1008.55
2018-03-27T04:08:57.480Z,1008.51
2018-03-27T04:09:57.473Z,1008.50
2018-03-27T04:10:57.466Z,1008.54
2018-03-27T04:11:57.459Z,1008.52
2018-03-27T04:12:57.451Z,1008.49
2018-03-27T04:13:57.443Z,1008.51
2018-03-27T04:14:57.435Z,1008.51
2018-03-27T04:15:57.427Z,1008.48
2018-03-27T04:16:57.420Z,1008.49
2018-03-27T04:17:57.412Z,1008.46
2018-03-27T04:18:57.404Z,1008.50
2018-03-27T04:19:57.397Z,1008.50
2018-03-27T04:20:57.389Z,1008.53
2018-03-27T04:21:57.381Z,1008.53
2018-03-27T04:22:57.373Z,1008.52
2018-03-27T04:23:57.366Z,1008.50
2018-03-27T04:24:57.358Z,1008.51
2018-03-27T04:25:57.350Z,1008.48
2018-03-27T04:26:57.341Z,1008.51
2018-03-27T04:27:57.333Z,1008.52
2018-03-27T04:28:57.325Z,1008.52
2018-03-27T04:29:57.320Z,1008.50
2018-03-27T04:30:57.310Z,1008.48
2018-03-27T04:31:57.304Z,1008.43
2018-03-27T04:32:57.294Z,1008.43
2018-03-27T04:33:57.287Z,1008.44
2018-03-27T04:34:57.278Z,1008.38
2018-03-27T04:35:57.271Z,1008.34
2018-03-27T04:36:57.263Z,1008.37
2018-03-27T04:37:57.260Z,1008.36
2018-03-27T04:38:57.247Z,1008.34
2018-03-27T04:39:57.238Z,1008.31
2018-03-27T04:40:57.230Z,1008.32
2018-03-27T04:41:57.222Z,1008.33
2018-03-27T04:42:57.214Z,1008.31
2018-03-27T04:43:57.207Z,1008.27
2018-03-27T04:44:57.199Z,1008.33
2018-03-27T04:45:57.190Z,1008.27
2018-03-27T04:46:57.182Z,1008.31
2018-03-27T04:47:57.176Z,1008.32
2018-03-27T04:48:57.167Z,1008.31
2018-03-27T04:49:57.162Z,1008.31
2018-03-27T04:50:57.150Z,1008.31
2018-03-27T04:51:57.143Z,1008.32
2018-03-27T04:52:57.133Z,1008.31
2018-03-27T04:53:57.140Z,1008.30
2018-03-27T04:54:57.118Z,1008.33
2018-03-27T04:55:57.110Z,1008.37
2018-03-27T04:56:57.102Z,1008.38
2018-03-27T04:57:57.093Z,1008.40
2018-03-27T04:58:57.084Z,1008.42
2018-03-27T04:59:57.080Z,1008.43
2018-03-27T05:00:57.169Z,1008.47
2018-03-27T05:01:57.063Z,1008.42
2018-03-27T05:02:57.051Z,1008.44
2018-03-27T05:03:57.044Z,1008.40
2018-03-27T05:04:57.042Z,1008.46
2018-03-27T05:05:57.027Z,1008.43
2018-03-27T05:06:57.019Z,1008.42
2018-03-27T05:07:57.011Z,1008.40
2018-03-27T05:08:57.002Z,1008.41
2018-03-27T05:09:57.004Z,1008.39
2018-03-27T05:10:56.986Z,1008.39
2018-03-27T05:11:56.978Z,1008.37
2018-03-27T05:12:56.969Z,1008.38
2018-03-27T05:13:56.969Z,1008.36
2018-03-27T05:14:56.951Z,1008.35
2018-03-27T05:15:56.945Z,1008.32
2018-03-27T05:16:56.937Z,1008.37
2018-03-27T05:17:56.927Z,1008.34
2018-03-27T05:18:56.918Z,1008.31
2018-03-27T05:19:56.937Z,1008.32
2018-03-27T05:20:56.903Z,1008.35
2018-03-27T05:21:56.893Z,1008.37
2018-03-27T05:22:56.885Z,1008.35
2018-03-27T05:23:56.878Z,1008.34
2018-03-27T05:24:56.870Z,1008.37
2018-03-27T05:25:56.861Z,1008.37
2018-03-27T05:26:56.852Z,1008.37
2018-03-27T05:27:56.844Z,1008.38
2018-03-27T05:28:56.836Z,1008.39
2018-03-27T05:29:56.827Z,1008.37
2018-03-27T05:30:56.821Z,1008.36
2018-03-27T05:31:56.811Z,1008.36
2018-03-27T05:32:56.805Z,1008.33
2018-03-27T05:33:56.806Z,1008.40
2018-03-27T05:34:56.784Z,1008.36
2018-03-27T05:35:56.778Z,1008.33
2018-03-27T05:36:56.769Z,1008.33
2018-03-27T05:37:56.761Z,1008.39
2018-03-27T05:38:56.763Z,1008.37
2018-03-27T05:39:56.753Z,1008.38
2018-03-27T05:40:56.753Z,1008.39
2018-03-27T05:41:56.727Z,1008.37
2018-03-27T05:42:56.719Z,1008.40
2018-03-27T05:43:56.711Z,1008.39
2018-03-27T05:44:56.706Z,1008.41
2018-03-27T05:45:56.695Z,1008.42
2018-03-27T05:46:56.685Z,1008.39
2018-03-27T05:47:56.677Z,1008.42
2018-03-27T05:48:56.669Z,1008.37
2018-03-27T05:49:56.663Z,1008.42
2018-03-27T05:50:56.652Z,1008.41
2018-03-27T05:51:56.644Z,1008.40
2018-03-27T05:52:56.636Z,1008.38
2018-03-27T05:53:56.627Z,1008.35
2018-03-27T05:54:56.618Z,1008.34
2018-03-27T05:55:56.632Z,1008.33
2018-03-27T05:56:56.602Z,1008.28
2018-03-27T05:57:56.593Z,1008.26
2018-03-27T05:58:56.585Z,1008.30
2018-03-27T05:59:56.577Z,1008.27
2018-03-27T06:00:56.568Z,1008.28
2018-03-27T06:01:56.559Z,1008.28
2018-03-27T06:02:56.551Z,1008.27
2018-03-27T06:03:56.543Z,1008.26
2018-03-27T06:04:56.534Z,1008.24
2018-03-27T06:05:56.527Z,1008.25
2018-03-27T06:06:56.520Z,1008.25
2018-03-27T06:07:56.510Z,1008.26
2018-03-27T06:08:56.507Z,1008.25
2018-03-27T06:09:56.493Z,1008.23
2018-03-27T06:10:56.485Z,1008.21
2018-03-27T06:11:56.476Z,1008.23
2018-03-27T06:12:56.470Z,1008.19
2018-03-27T06:13:56.460Z,1008.19
2018-03-27T06:14:56.452Z,1008.19
2018-03-27T06:15:56.443Z,1008.19
2018-03-27T06:16:56.441Z,1008.23
2018-03-27T06:17:56.427Z,1008.21
2018-03-27T06:18:56.419Z,1008.21
2018-03-27T06:19:56.412Z,1008.19
2018-03-27T06:20:56.402Z,1008.20
2018-03-27T06:21:56.395Z,1008.22
2018-03-27T06:22:56.387Z,1008.22
2018-03-27T06:23:56.379Z,1008.23
2018-03-27T06:24:56.372Z,1008.19
2018-03-27T06:25:56.364Z,1008.19
2018-03-27T06:26:56.357Z,1008.18
2018-03-27T06:27:56.349Z,1008.19
2018-03-27T06:28:56.344Z,1008.21
2018-03-27T06:29:56.338Z,1008.22
2018-03-27T06:30:56.326Z,1008.21
2018-03-27T06:31:56.520Z,1008.20
2018-03-27T06:32:56.313Z,1008.24
2018-03-27T06:33:56.306Z,1008.28
2018-03-27T06:34:56.299Z,1008.25
2018-03-27T06:35:56.289Z,1008.24
2018-03-27T06:36:56.282Z,1008.21
2018-03-27T06:37:56.276Z,1008.20
2018-03-27T06:38:56.269Z,1008.20
2018-03-27T06:39:56.266Z,1008.21
2018-03-27T06:40:56.254Z,1008.17
2018-03-27T06:41:56.246Z,1008.21
2018-03-27T06:42:56.239Z,1008.21
2018-03-27T06:43:56.232Z,1008.21
2018-03-27T06:44:56.226Z,1008.20
2018-03-27T06:45:56.218Z,1008.21
2018-03-27T06:46:56.211Z,1008.18
2018-03-27T06:47:56.209Z,1008.20
2018-03-27T06:48:56.200Z,1008.22
2018-03-27T06:49:56.189Z,1008.23
2018-03-27T06:50:56.182Z,1008.28
2018-03-27T06:51:56.177Z,1008.27
2018-03-27T06:52:56.171Z,1008.22
2018-03-27T06:53:56.161Z,1008.23
2018-03-27T06:54:56.154Z,1008.21
2018-03-27T06:55:56.147Z,1008.26
2018-03-27T06:56:56.140Z,1008.23
2018-03-27T06:57:56.132Z,1008.14
2018-03-27T06:58:56.125Z,1008.19
2018-03-27T06:59:56.119Z,1008.17
2018-03-27T07:00:56.111Z,1008.13
2018-03-27T07:01:56.105Z,1008.12
2018-03-27T07:02:56.099Z,1008.13
2018-03-27T07:03:56.091Z,1008.16
2018-03-27T07:04:56.096Z,1008.15
2018-03-27T07:05:56.075Z,1008.13
2018-03-27T07:06:56.069Z,1008.16
2018-03-27T07:07:56.063Z,1008.10
2018-03-27T07:08:56.081Z,1008.08
2018-03-27T07:09:56.057Z,1008.14
2018-03-27T07:10:56.043Z,1008.15
2018-03-27T07:11:56.043Z,1008.09
2018-03-27T07:12:56.044Z,1008.17
2018-03-27T07:13:56.026Z,1008.21
2018-03-27T07:14:56.029Z,1008.19
2018-03-27T07:15:56.051Z,1008.26
2018-03-27T07:16:56.034Z,1008.26
2018-03-27T07:17:55.998Z,1008.27
2018-03-27T07:18:56.012Z,1008.28
2018-03-27T07:19:55.987Z,1008.25
2018-03-27T07:20:55.980Z,1008.10
2018-03-27T07:21:55.973Z,1008.19
2018-03-27T07:22:55.967Z,1008.21
2018-03-27T07:23:55.962Z,1008.22
2018-03-27T07:24:55.958Z,1008.22
2018-03-27T07:25:55.951Z,1008.24
2018-03-27T07:26:55.958Z,1008.18
2018-03-27T07:27:55.941Z,1008.18
2018-03-27T07:28:55.936Z,1008.18
2018-03-27T07:29:55.932Z,1008.18
2018-03-27T07:30:55.931Z,1008.25
2018-03-27T07:31:55.931Z,1008.20
2018-03-27T07:32:55.935Z,1008.10
2018-03-27T07:33:55.911Z,1008.15
2018-03-27T07:34:55.908Z,1008.06
2018-03-27T07:35:55.905Z,1008.18
2018-03-27T07:36:55.903Z,1008.14
2018-03-27T07:37:55.894Z,1008.07
2018-03-27T07:38:55.890Z,1008.02
2018-03-27T07:39:55.887Z,1008.00
2018-03-27T07:40:55.884Z,1008.02
2018-03-27T07:41:55.880Z,1008.02
2018-03-27T07:42:55.882Z,1007.99
2018-03-27T07:43:55.882Z,1007.97
2018-03-27T07:44:55.863Z,1008.01
2018-03-27T07:45:55.857Z,1008.04
2018-03-27T07:46:55.853Z,1008.13
2018-03-27T07:47:55.848Z,1008.07
2018-03-27T07:48:55.845Z,1008.02
2018-03-27T07:49:55.839Z,1008.08
2018-03-27T07:50:55.838Z,1008.07
2018-03-27T07:51:55.829Z,1007.96
2018-03-27T07:52:55.824Z,1007.96
2018-03-27T07:53:55.820Z,1008.00
2018-03-27T07:54:55.815Z,1007.97
2018-03-27T07:55:55.810Z,1007.96
2018-03-27T07:56:55.806Z,1008.01
2018-03-27T07:57:55.817Z,1007.95
2018-03-27T07:58:55.795Z,1007.99
2018-03-27T07:59:55.790Z,1007.87
2018-03-27T08:00:55.790Z,1007.87
2018-03-27T08:01:55.779Z,1007.88
2018-03-27T08:02:55.774Z,1007.87
2018-03-27T08:03:55.772Z,1007.84
2018-03-27T08:04:55.765Z,1007.85
2018-03-27T08:05:55.758Z,1007.83
2018-03-27T08:06:55.753Z,1007.80
2018-03-27T08:07:55.749Z,1007.81
2018-03-27T08:08:55.744Z,1007.73
2018-03-27T08:09:55.738Z,1007.83
2018-03-27T08:10:55.756Z,1007.74
2018-03-27T08:11:55.733Z,1007.84
2018-03-27T08:12:55.725Z,1007.76
2018-03-27T08:13:55.720Z,1007.69
2018-03-27T08:14:55.714Z,1007.72
2018-03-27T08:15:55.710Z,1007.69
2018-03-27T08:16:55.705Z,1007.68
2018-03-27T08:17:55.700Z,1007.66
2018-03-27T08:18:55.699Z,1007.71
2018-03-27T08:19:55.942Z,1007.70
2018-03-27T08:20:55.687Z,1007.68
2018-03-27T08:21:55.681Z,1007.72
2018-03-27T08:22:55.676Z,1007.72
2018-03-27T08:23:55.688Z,1007.72
2018-03-27T08:24:55.666Z,1007.69
2018-03-27T08:25:55.928Z,1007.69
2018-03-27T08:26:55.656Z,1007.61
2018-03-27T08:27:55.651Z,1007.60
2018-03-27T08:28:55.651Z,1007.62
2018-03-27T08:29:55.651Z,1007.63
2018-03-27T08:30:55.634Z,1007.63
2018-03-27T08:31:55.629Z,1007.63
2018-03-27T08:32:55.625Z,1007.64
2018-03-27T08:33:55.618Z,1007.59
2018-03-27T08:34:55.613Z,1007.57
2018-03-27T08:35:55.611Z,1007.56
2018-03-27T08:36:55.615Z,1007.47
2018-03-27T08:37:55.600Z,1007.47
2018-03-27T08:38:55.592Z,1007.45
2018-03-27T08:39:55.591Z,1007.44
2018-03-27T08:40:55.581Z,1007.49
2018-03-27T08:41:55.574Z,1007.41
2018-03-27T08:42:55.570Z,1007.38
2018-03-27T08:43:55.571Z,1007.37
2018-03-27T08:44:55.559Z,1007.34
2018-03-27T08:45:55.552Z,1007.33
2018-03-27T08:46:55.550Z,1007.35
2018-03-27T08:47:55.541Z,1007.33
2018-03-27T08:48:55.536Z,1007.33
2018-03-27T08:49:55.528Z,1007.32
2018-03-27T08:50:55.525Z,1007.30
2018-03-27T08:51:55.518Z,1007.30
2018-03-27T08:52:55.514Z,1007.34
2018-03-27T08:53:55.509Z,1007.31
2018-03-27T08:54:55.501Z,1007.31
2018-03-27T08:55:55.495Z,1007.24
2018-03-27T08:56:55.490Z,1007.26
2018-03-27T08:57:55.484Z,1007.22
2018-03-27T08:58:55.481Z,1007.22
2018-03-27T08:59:55.473Z,1007.22
2018-03-27T09:00:55.473Z,1007.22
2018-03-27T09:01:55.713Z,1007.20
2018-03-27T09:02:55.458Z,1007.19
2018-03-27T09:03:55.452Z,1007.17
2018-03-27T09:04:55.449Z,1007.17
2018-03-27T09:05:55.442Z,1007.16
2018-03-27T09:06:55.449Z,1007.18
2018-03-27T09:07:55.432Z,1007.17
2018-03-27T09:08:55.434Z,1007.15
2018-03-27T09:09:55.421Z,1007.16
2018-03-27T09:10:55.416Z,1007.10
2018-03-27T09:11:55.411Z,1007.14
2018-03-27T09:12:55.411Z,1007.14
2018-03-27T09:13:55.704Z,1007.09
2018-03-27T09:14:55.423Z,1007.08
2018-03-27T09:15:55.446Z,1007.10
2018-03-27T09:16:55.386Z,1007.09
2018-03-27T09:17:55.380Z,1007.05
2018-03-27T09:18:55.375Z,1007.03
2018-03-27T09:19:55.371Z,1006.99
2018-03-27T09:20:55.366Z,1007.02
2018-03-27T09:21:55.364Z,1007.04
2018-03-27T09:22:55.400Z,1007.04
2018-03-27T09:23:55.350Z,1007.01
2018-03-27T09:24:55.345Z,1007.03
2018-03-27T09:25:55.341Z,1007.02
2018-03-27T09:26:55.334Z,1006.99
2018-03-27T09:27:55.344Z,1007.00
2018-03-27T09:28:55.323Z,1006.99
2018-03-27T09:29:55.319Z,1006.98
2018-03-27T09:30:55.313Z,1006.98
2018-03-27T09:31:55.309Z,1006.94
2018-03-27T09:32:55.304Z,1006.89
2018-03-27T09:33:55.298Z,1006.92
2018-03-27T09:34:55.293Z,1006.88
2018-03-27T09:35:55.291Z,1006.89
2018-03-27T09:36:55.286Z,1006.89
2018-03-27T09:37:55.278Z,1006.89
2018-03-27T09:38:55.273Z,1006.84
2018-03-27T09:39:55.269Z,1006.86
2018-03-27T09:40:55.269Z,1006.88
2018-03-27T09:41:55.266Z,1006.88
2018-03-27T09:42:55.255Z,1006.86
2018-03-27T09:43:55.249Z,1006.89
2018-03-27T09:44:55.244Z,1006.87
2018-03-27T09:45:55.238Z,1006.87
2018-03-27T09:46:55.251Z,1006.83
2018-03-27T09:47:55.231Z,1006.85
2018-03-27T09:48:55.226Z,1006.88
2018-03-27T09:49:55.242Z,1006.85
2018-03-27T09:50:55.226Z,1006.80
2018-03-27T09:51:55.215Z,1006.77
2018-03-27T09:52:55.209Z,1006.78
2018-03-27T09:53:55.209Z,1006.75
2018-03-27T09:54:55.202Z,1006.75
2018-03-27T09:55:55.448Z,1006.73
2018-03-27T09:56:55.193Z,1006.74
2018-03-27T09:57:55.188Z,1006.72
2018-03-27T09:58:55.183Z,1006.65
2018-03-27T09:59:55.184Z,1006.66
2018-03-27T10:00:55.175Z,1006.66
2018-03-27T10:01:55.421Z,1006.61
2018-03-27T10:02:55.167Z,1006.59
2018-03-27T10:03:55.172Z,1006.59
2018-03-27T10:04:55.158Z,1006.56
2018-03-27T10:05:55.155Z,1006.57
2018-03-27T10:06:55.151Z,1006.57
2018-03-27T10:07:55.397Z,1006.54
2018-03-27T10:08:55.203Z,1006.58
2018-03-27T10:09:55.172Z,1006.58
2018-03-27T10:10:55.135Z,1006.57
2018-03-27T10:11:55.139Z,1006.54
2018-03-27T10:12:55.134Z,1006.49
2018-03-27T10:13:55.135Z,1006.49
2018-03-27T10:14:55.133Z,1006.49
2018-03-27T10:15:55.117Z,1006.53
2018-03-27T10:16:55.124Z,1006.49
2018-03-27T10:17:55.113Z,1006.44
2018-03-27T10:18:55.115Z,1006.42
2018-03-27T10:19:55.116Z,1006.41
2018-03-27T10:20:55.099Z,1006.42
2018-03-27T10:21:55.109Z,1006.38
2018-03-27T10:22:55.092Z,1006.39
2018-03-27T10:23:55.087Z,1006.43
2018-03-27T10:24:55.084Z,1006.42
2018-03-27T10:25:55.082Z,1006.42
2018-03-27T10:26:55.081Z,1006.36
2018-03-27T10:27:55.078Z,1006.33
2018-03-27T10:28:55.076Z,1006.29
2018-03-27T10:29:55.084Z,1006.29
2018-03-27T10:30:55.069Z,1006.31
2018-03-27T10:31:55.312Z,1006.30
2018-03-27T10:32:55.068Z,1006.26
2018-03-27T10:33:55.069Z,1006.18
2018-03-27T10:34:55.069Z,1006.16
2018-03-27T10:35:55.057Z,1006.14
2018-03-27T10:36:55.047Z,1006.07
2018-03-27T10:37:55.043Z,1006.06
2018-03-27T10:38:55.040Z,1006.09
2018-03-27T10:39:55.037Z,1006.13
2018-03-27T10:40:55.040Z,1006.12
2018-03-27T10:41:55.031Z,1006.09
2018-03-27T10:42:55.027Z,1006.07
2018-03-27T10:43:55.023Z,1006.01
2018-03-27T10:44:55.022Z,1005.99
2018-03-27T10:45:55.017Z,1005.99
2018-03-27T10:46:55.014Z,1005.97
2018-03-27T10:47:55.010Z,1005.96
2018-03-27T10:48:55.010Z,1005.94
2018-03-27T10:49:55.006Z,1005.91
2018-03-27T10:50:55.003Z,1005.94
2018-03-27T10:51:55.000Z,1005.89
2018-03-27T10:52:55.001Z,1005.90
2018-03-27T10:53:54.996Z,1005.89
2018-03-27T10:54:54.991Z,1005.79
2018-03-27T10:55:54.988Z,1005.82
2018-03-27T10:56:54.993Z,1005.75
2018-03-27T10:57:54.983Z,1005.74
2018-03-27T10:58:54.980Z,1005.75
2018-03-27T11:00:37.399Z,1005.74
2018-03-27T11:01:37.738Z,1005.70
2018-03-27T11:02:37.384Z,1005.76
2018-03-27T11:03:37.387Z,1005.76
2018-03-27T11:04:37.385Z,1005.74
2018-03-27T11:05:37.381Z,1005.71
2018-03-27T11:06:37.381Z,1005.74
2018-03-27T11:07:37.623Z,1005.70
2018-03-27T11:08:37.371Z,1005.65
2018-03-27T11:09:37.368Z,1005.63
2018-03-27T11:10:37.365Z,1005.68
2018-03-27T11:11:37.364Z,1005.68
2018-03-27T11:12:37.368Z,1005.65
2018-03-27T11:13:37.611Z,1005.61
2018-03-27T11:14:37.359Z,1005.57
2018-03-27T11:15:37.356Z,1005.57
2018-03-27T11:16:37.356Z,1005.53
2018-03-27T11:17:37.353Z,1005.48
2018-03-27T11:18:37.350Z,1005.46
2018-03-27T11:19:37.349Z,1005.46
2018-03-27T11:20:37.347Z,1005.48
2018-03-27T11:21:37.345Z,1005.42
2018-03-27T11:22:37.344Z,1005.38
2018-03-27T11:23:37.340Z,1005.34
2018-03-27T11:24:37.339Z,1005.40
2018-03-27T11:25:37.337Z,1005.38
2018-03-27T11:26:37.334Z,1005.35
2018-03-27T11:27:37.332Z,1005.37
2018-03-27T11:28:37.332Z,1005.36
2018-03-27T11:29:37.328Z,1005.27
2018-03-27T11:30:37.325Z,1005.28
2018-03-27T11:31:37.324Z,1005.23
2018-03-27T11:32:37.322Z,1005.23
2018-03-27T11:33:37.319Z,1005.23
2018-03-27T11:34:37.315Z,1005.18
2018-03-27T11:35:37.320Z,1005.13
2018-03-27T11:36:37.314Z,1005.12
2018-03-27T11:37:37.311Z,1005.13
2018-03-27T11:38:37.308Z,1005.09
2018-03-27T11:39:37.306Z,1005.08
2018-03-27T11:40:37.304Z,1005.07
2018-03-27T11:41:37.302Z,1005.02
2018-03-27T11:42:37.298Z,1005.05
2018-03-27T11:43:37.297Z,1005.00
2018-03-27T11:44:37.298Z,1005.11
2018-03-27T11:45:37.295Z,1004.98
2018-03-27T11:46:37.292Z,1004.96
2018-03-27T11:47:37.294Z,1004.88
2018-03-27T11:48:37.290Z,1004.88
2018-03-27T11:49:37.539Z,1004.84
2018-03-27T11:50:37.285Z,1004.85
2018-03-27T11:51:37.285Z,1004.79
2018-03-27T11:52:37.283Z,1004.76
2018-03-27T11:53:37.282Z,1004.73
2018-03-27T11:54:37.316Z,1004.72
2018-03-27T11:55:37.529Z,1004.68
2018-03-27T11:56:37.277Z,1004.68
2018-03-27T11:57:37.276Z,1004.66
2018-03-27T11:58:37.274Z,1004.67
2018-03-27T11:59:37.274Z,1004.61
2018-03-27T12:00:37.272Z,1004.59
2018-03-27T12:01:37.275Z,1004.58
2018-03-27T12:02:37.269Z,1004.55
2018-03-27T12:03:37.268Z,1004.59
2018-03-27T12:04:37.267Z,1004.59
2018-03-27T12:05:37.269Z,1004.57
2018-03-27T12:06:37.264Z,1004.53